Hlavní strana
METAR-TAF:

METAR-TAF

Letiště :

Letiště Kiruna

Kiruna, Švédsko

zeměpisná šířka: 67-49N, zeměpisná délka: 020-20E, výška: 452 m

Aktuální stav počasí

Zpráva byla vytvořena před 35 minutami, v 11:50 UTC
Západojihozápadní vítr 3 kt
Teplota -10°C
Vlhkost vzduchu 85%
Tlak 990 hPa
Viditelnost: 9000 m
Skoro jasno ve výšce 700 ft
Polojasno ve výšce 2000 ft
Oblačno až skoro zataženo ve výšce 4400 ft
slabé sněžení

METAR: ESNQ 291150Z 25003KT 9000 -SN FEW007 SCT020 BKN044 M10/M12 Q0990

Čas: 13:25 (12:25 UTC)

Předpověď počasí

Zpráva byla vytvořena před 3 hodinami a 55 minutami, v 08:30 UTC
Předpověď platná od 29 v 09 UTC do 29 v 13 UTC
Severní vítr 5 kt
Viditelnost 10 km a více
Oblačno až skoro zataženo ve výšce 2000 ft

TAF: ESNQ 290830Z 2909/2913 35005KT 9999 BKN020

Stav a předpovědi počasí z více než 4 000 letišť (zprávy METAR a TAF).

Červené a žluté tečky na mapě představují dostupné meteorologické stanice.

Když kurzor umístíte na tečku, zobrazí se název stanice.

Pak kliknutím zobrazíte stav a předpověď počasí.

Chcete-li změnit mapu, kliknutím na zelené tlačítko se znaménkem +mapu přiblížíte, kliknutím na zelené tlačítko se znaménkem – mapu oddálíte a kliknutím na zelené šipky přejdete na sousední mapy.


METAR-TAF: